Time;durP1;ratioP1;P1;durP2;ratioP2;P2;SDS_P1;SDS_P2;PMS_P1;PMS_P2;Temp;Humidity;BMP_temperature;BMP_pressure;BME280_temperature;BME280_humidity;BME280_pressure;Samples;Min_cycle;Max_cycle;Signal;HPM_P1;HPM_P2
2022/04/20 00:01:46;;;;;;;3.88;2.60;;;4.90;99.90;;;;;;4955504;29;20035;-76
2022/04/20 00:04:12;;;;;;;4.57;2.40;;;4.90;99.90;;;;;;4955839;29;20502;-75
2022/04/20 00:06:38;;;;;;;3.90;2.40;;;4.90;99.90;;;;;;4955424;29;20491;-74
2022/04/20 00:09:03;;;;;;;5.78;2.33;;;4.80;99.90;;;;;;4955354;29;20035;-76
2022/04/20 00:11:29;;;;;;;4.45;2.28;;;4.80;99.90;;;;;;4955453;29;20114;-76
2022/04/20 00:13:55;;;;;;;4.35;2.63;;;4.80;99.90;;;;;;4938273;29;20036;-76
2022/04/20 00:16:21;;;;;;;6.07;2.38;;;4.70;99.90;;;;;;4955428;29;20074;-76
2022/04/20 00:18:46;;;;;;;7.35;2.30;;;4.70;99.90;;;;;;4955409;29;20449;-76
2022/04/20 00:21:12;;;;;;;5.05;2.63;;;4.70;99.90;;;;;;4955093;29;20027;-76
2022/04/20 00:23:38;;;;;;;6.57;2.55;;;4.60;99.90;;;;;;4955558;29;20039;-76
2022/04/20 00:26:04;;;;;;;7.25;2.65;;;4.60;99.90;;;;;;4955286;29;20443;-76
2022/04/20 00:28:29;;;;;;;20.38;3.80;;;4.50;99.90;;;;;;4955209;29;20031;-77
2022/04/20 00:30:55;;;;;;;16.95;2.65;;;4.50;99.90;;;;;;4955103;29;20023;-78
2022/04/20 00:33:21;;;;;;;19.27;3.28;;;4.40;99.90;;;;;;4955033;29;20035;-78
2022/04/20 00:35:48;;;;;;;22.23;3.60;;;4.40;99.90;;;;;;4955028;28;20471;-78
2022/04/20 00:38:16;;;;;;;20.38;3.53;;;4.40;99.90;;;;;;4954722;28;20059;-77
2022/04/20 00:40:43;;;;;;;10.55;2.72;;;4.30;99.90;;;;;;4955054;29;20028;-76
2022/04/20 00:43:08;;;;;;;10.07;2.47;;;4.30;99.90;;;;;;4954617;29;20050;-76
2022/04/20 00:45:35;;;;;;;11.38;2.65;;;4.20;99.90;;;;;;4937625;29;20019;-76
2022/04/20 00:48:03;;;;;;;7.80;2.53;;;4.20;99.90;;;;;;4954667;29;20403;-76
2022/04/20 00:50:29;;;;;;;7.43;2.53;;;4.20;99.90;;;;;;4955089;29;20023;-76
2022/04/20 00:52:55;;;;;;;7.20;2.50;;;4.10;99.90;;;;;;4954707;29;20023;-76
2022/04/20 00:55:20;;;;;;;6.53;2.22;;;4.10;99.90;;;;;;4954488;29;20074;-77
2022/04/20 00:57:46;;;;;;;8.88;2.80;;;4.10;99.90;;;;;;4954825;29;20108;-77
2022/04/20 01:00:12;;;;;;;4.28;2.38;;;4.10;99.90;;;;;;4954421;29;20558;-76
2022/04/20 01:02:38;;;;;;;6.15;2.50;;;4.10;99.90;;;;;;4954423;29;20039;-77
2022/04/20 01:05:04;;;;;;;6.40;2.65;;;4.20;99.90;;;;;;4954337;29;20093;-76
2022/04/20 01:07:40;;;;;;;6.15;2.85;;;4.20;99.90;;;;;;4954645;29;20094;-76
2022/04/20 01:10:06;;;;;;;6.40;3.38;;;4.20;99.90;;;;;;4954615;29;20431;-76
2022/04/20 01:12:32;;;;;;;6.40;2.67;;;4.10;99.90;;;;;;4954353;29;20395;-76
2022/04/20 01:14:58;;;;;;;6.75;2.60;;;4.20;99.90;;;;;;4954268;29;20519;-76
2022/04/20 01:17:24;;;;;;;7.65;2.63;;;4.10;99.90;;;;;;4954106;29;20031;-78
2022/04/20 01:19:50;;;;;;;2.72;2.22;;;4.20;99.90;;;;;;4954206;29;20047;-78
2022/04/20 01:22:16;;;;;;;5.65;2.80;;;4.10;99.90;;;;;;4953994;29;20039;-78
2022/04/20 01:24:42;;;;;;;4.55;2.80;;;4.00;99.90;;;;;;4953770;28;20034;-78
2022/04/20 01:27:08;;;;;;;8.52;2.53;;;4.00;99.90;;;;;;4954043;29;20106;-78
2022/04/20 01:29:34;;;;;;;5.72;2.65;;;4.00;99.90;;;;;;4954114;29;20027;-77
2022/04/20 01:32:00;;;;;;;4.40;2.75;;;4.00;99.90;;;;;;4953951;29;20023;-78
2022/04/20 01:34:26;;;;;;;5.88;2.97;;;4.00;99.90;;;;;;4954112;29;20495;-78
2022/04/20 01:36:52;;;;;;;7.20;2.83;;;3.90;99.90;;;;;;4953773;28;20074;-78
2022/04/20 01:39:17;;;;;;;7.03;3.13;;;3.90;99.90;;;;;;4953921;29;20518;-78
2022/04/20 01:41:44;;;;;;;4.82;2.80;;;3.80;99.90;;;;;;4953739;29;20411;-77
2022/04/20 01:44:10;;;;;;;3.92;2.88;;;3.80;99.90;;;;;;4954069;29;20591;-79
2022/04/20 01:46:36;;;;;;;8.05;2.55;;;3.80;99.90;;;;;;4953861;29;20067;-79
2022/04/20 01:49:03;;;;;;;9.15;2.75;;;3.80;99.90;;;;;;4953847;29;20055;-76
2022/04/20 01:51:50;;;;;;;11.40;2.83;;;3.70;99.90;;;;;;4953865;29;20023;-76
2022/04/20 01:54:16;;;;;;;7.63;2.55;;;3.70;99.90;;;;;;4953832;29;20027;-76
2022/04/20 01:56:42;;;;;;;10.88;2.80;;;3.70;99.90;;;;;;4954093;29;20028;-76
2022/04/20 01:59:09;;;;;;;6.00;2.88;;;3.70;99.90;;;;;;4953861;29;20073;-76
2022/04/20 02:04:19;;;;;;;6.68;2.65;;;3.70;99.90;;;;;;4954195;29;20089;-78
2022/04/20 02:06:45;;;;;;;8.50;3.25;;;3.70;99.90;;;;;;4953937;29;20109;-76
2022/04/20 02:09:11;;;;;;;6.60;3.30;;;3.70;99.90;;;;;;4953582;29;20110;-76
2022/04/20 02:11:38;;;;;;;8.88;2.70;;;3.60;99.90;;;;;;4953560;29;20027;-76
2022/04/20 02:14:03;;;;;;;10.60;2.55;;;3.60;99.90;;;;;;4953482;29;20079;-77
2022/04/20 02:16:29;;;;;;;8.82;3.53;;;3.60;99.90;;;;;;4953662;29;20024;-82
2022/04/20 02:18:56;;;;;;;7.72;3.42;;;3.60;99.90;;;;;;4953544;29;20094;-81
2022/04/20 02:21:22;;;;;;;7.35;3.17;;;3.50;99.90;;;;;;4953411;29;20062;-82
2022/04/20 02:23:47;;;;;;;11.80;3.10;;;3.50;99.90;;;;;;4953590;29;20063;-82
2022/04/20 02:55:17;;;;;;;7.53;2.65;;;3.50;99.90;;;;;;4967221;28;20117;-78
2022/04/20 02:57:43;;;;;;;7.97;2.72;;;3.50;99.90;;;;;;4958323;29;20039;-77
2022/04/20 03:00:10;;;;;;;4.68;2.95;;;3.40;99.90;;;;;;4957131;29;20062;-77
2022/04/20 03:02:36;;;;;;;5.53;2.97;;;3.40;99.90;;;;;;4956503;29;20039;-78
2022/04/20 03:38:41;;;;;;;10.50;2.63;;;3.30;99.90;;;;;;5104929;23;20069;-74
2022/04/20 03:41:07;;;;;;;18.98;3.00;;;3.20;99.90;;;;;;4975659;28;20031;-74
2022/04/20 03:43:32;;;;;;;8.90;2.83;;;3.20;99.90;;;;;;4975388;28;20043;-74
2022/04/20 03:45:58;;;;;;;11.20;3.25;;;3.20;99.90;;;;;;4975416;28;20034;-75
2022/04/20 03:48:24;;;;;;;9.38;2.67;;;3.20;99.90;;;;;;4974698;28;20023;-75
2022/04/20 03:50:50;;;;;;;8.35;2.63;;;3.20;99.90;;;;;;4975238;28;20019;-77
2022/04/20 03:53:16;;;;;;;5.53;2.53;;;3.20;99.90;;;;;;4957686;28;20492;-77
2022/04/20 03:55:43;;;;;;;6.68;2.97;;;3.20;99.90;;;;;;4975136;28;20035;-76
2022/04/20 03:58:09;;;;;;;3.63;2.08;;;3.20;99.90;;;;;;4974866;28;20066;-77
2022/04/20 04:00:34;;;;;;;11.82;2.80;;;3.20;99.90;;;;;;4975121;28;20058;-77
2022/04/20 04:03:00;;;;;;;8.63;2.33;;;3.20;99.90;;;;;;4974960;28;20375;-81
2022/04/20 04:05:26;;;;;;;7.50;2.85;;;3.30;99.90;;;;;;4974847;28;20030;-82
2022/04/20 04:07:52;;;;;;;3.80;2.40;;;3.40;99.90;;;;;;4974900;28;20026;-82
2022/04/20 04:10:18;;;;;;;3.20;1.85;;;3.50;99.90;;;;;;4974904;28;20110;-82
2022/04/20 04:12:44;;;;;;;6.28;2.30;;;3.70;99.90;;;;;;4974740;28;20045;-79
2022/04/20 04:15:10;;;;;;;7.10;2.30;;;4.00;99.90;;;;;;4974785;28;20019;-80
2022/04/20 04:17:36;;;;;;;3.55;2.25;;;4.40;99.90;;;;;;4974508;28;20070;-79
2022/04/20 04:20:04;;;;;;;2.85;2.17;;;4.70;99.90;;;;;;4974840;28;20058;-75
2022/04/20 04:22:29;;;;;;;15.77;2.72;;;5.10;99.90;;;;;;4974377;28;20031;-76
2022/04/20 04:24:57;;;;;;;7.60;2.88;;;5.50;99.90;;;;;;4974388;28;20034;-77
2022/04/20 04:27:22;;;;;;;29.17;4.57;;;5.90;99.90;;;;;;4974491;28;20038;-79
2022/04/20 04:29:48;;;;;;;14.27;2.30;;;6.30;99.90;;;;;;4974362;28;20027;-82
2022/04/20 04:32:14;;;;;;;18.50;2.30;;;6.70;99.90;;;;;;4974250;28;20037;-73
2022/04/20 04:34:40;;;;;;;6.25;2.30;;;6.90;99.90;;;;;;4974207;28;20089;-70
2022/04/20 04:37:08;;;;;;;3.75;1.50;;;7.10;99.90;;;;;;4973952;28;20540;-69
2022/04/20 04:39:34;;;;;;;3.95;1.73;;;7.70;99.90;;;;;;4973993;28;20652;-72
2022/04/20 04:42:00;;;;;;;3.55;1.90;;;9.40;99.90;;;;;;4974017;28;20479;-77
2022/04/20 04:44:27;;;;;;;3.33;2.00;;;9.70;99.10;;;;;;5005876;28;20033;-72
2022/04/20 04:49:37;;;;;;;4.75;1.98;;;9.00;97.30;;;;;;5013063;28;20106;-73
2022/04/20 04:52:06;;;;;;;2.25;1.70;;;8.80;97.80;;;;;;5012946;28;20447;-72
2022/04/20 04:54:33;;;;;;;4.50;1.88;;;8.90;98.20;;;;;;5001773;28;20035;-70
2022/04/20 04:57:00;;;;;;;3.53;1.70;;;9.00;97.90;;;;;;4992428;28;20102;-72
2022/04/20 04:59:25;;;;;;;3.28;1.83;;;9.30;97.10;;;;;;4991631;28;20504;-77
2022/04/20 05:01:51;;;;;;;16.92;2.50;;;9.60;95.00;;;;;;4992047;28;20035;-77
2022/04/20 05:04:17;;;;;;;20.13;2.63;;;9.70;94.80;;;;;;4992047;28;20037;-78
2022/04/20 05:06:44;;;;;;;9.45;2.33;;;10.00;93.80;;;;;;4987102;28;20532;-78
2022/04/20 05:09:10;;;;;;;10.90;2.88;;;10.20;92.60;;;;;;4992102;28;20486;-81
2022/04/20 05:11:35;;;;;;;3.92;1.80;;;10.40;91.40;;;;;;4985699;28;20033;-74
2022/04/20 05:14:01;;;;;;;5.70;1.95;;;10.50;91.20;;;;;;4986481;28;20027;-77
2022/04/20 05:16:27;;;;;;;7.60;2.22;;;10.80;90.50;;;;;;4989202;28;20064;-78
2022/04/20 05:18:52;;;;;;;7.57;2.20;;;11.10;89.40;;;;;;4992559;28;20113;-75
2022/04/20 05:21:18;;;;;;;6.53;2.05;;;11.30;87.40;;;;;;4992588;28;20018;-76
2022/04/20 05:23:44;;;;;;;3.38;1.55;;;11.40;86.10;;;;;;4992526;28;20406;-74
2022/04/20 05:26:10;;;;;;;6.43;2.10;;;12.50;99.90;;;;;;4993194;28;20114;-74
2022/04/20 05:28:35;;;;;;;12.98;1.80;;;13.00;84.50;;;;;;4992508;28;20026;-74
2022/04/20 05:31:01;;;;;;;5.20;1.80;;;13.00;79.90;;;;;;4992785;28;20033;-74
2022/04/20 05:33:27;;;;;;;2.88;1.25;;;12.90;77.90;;;;;;4992797;28;20034;-74
2022/04/20 05:35:52;;;;;;;2.85;1.80;;;12.90;77.40;;;;;;4992678;28;20146;-74
2022/04/20 05:43:49;;;;;;;7.68;1.60;;;13.20;75.30;;;;;;4992912;28;20052;-74
2022/04/20 05:46:16;;;;;;;6.95;1.40;;;13.40;74.10;;;;;;4992465;28;20105;-74
2022/04/20 05:48:42;;;;;;;3.33;1.45;;;13.50;73.10;;;;;;4992461;28;20027;-75
2022/04/20 05:51:08;;;;;;;23.08;2.28;;;13.50;72.30;;;;;;4992518;28;20045;-74
2022/04/20 05:53:34;;;;;;;28.90;2.70;;;13.50;71.70;;;;;;4992294;28;20037;-73
2022/04/20 05:55:59;;;;;;;12.23;2.25;;;13.70;71.00;;;;;;4992797;28;20034;-73
2022/04/20 05:58:25;;;;;;;11.68;1.92;;;13.70;70.50;;;;;;4992208;28;20106;-74
2022/04/20 06:00:51;;;;;;;20.65;3.00;;;13.80;70.10;;;;;;4992438;28;20117;-72
2022/04/20 06:03:16;;;;;;;5.88;1.25;;;14.00;70.00;;;;;;4992090;28;20046;-68
2022/04/20 06:05:42;;;;;;;7.68;1.27;;;14.30;79.00;;;;;;4992525;28;20026;-73
2022/04/20 06:08:08;;;;;;;14.98;2.30;;;15.10;77.80;;;;;;4992247;28;20375;-75
2022/04/20 06:10:34;;;;;;;24.45;3.38;;;15.30;70.30;;;;;;4993642;28;20575;-82
2022/04/20 06:13:00;;;;;;;9.18;2.03;;;15.00;69.00;;;;;;4990849;28;20441;-89
2022/04/20 06:15:26;;;;;;;15.07;1.40;;;14.90;67.60;;;;;;4995872;28;20018;-77
2022/04/20 06:17:51;;;;;;;11.65;1.45;;;14.90;67.10;;;;;;4995815;28;20417;-80
2022/04/20 06:20:17;;;;;;;6.70;1.50;;;14.90;67.70;;;;;;4995100;28;20500;-82
2022/04/20 06:22:43;;;;;;;4.57;1.27;;;14.70;67.10;;;;;;4995661;28;20042;-79
2022/04/20 06:25:09;;;;;;;56.05;4.30;;;14.60;67.30;;;;;;4995474;28;20032;-70
2022/04/20 06:27:35;;;;;;;18.83;2.75;;;14.40;67.50;;;;;;4995368;28;20106;-71
2022/04/20 06:30:00;;;;;;;52.85;4.28;;;14.40;67.40;;;;;;4995225;28;20034;-71
2022/04/20 06:32:27;;;;;;;63.90;6.03;;;14.50;67.20;;;;;;4995529;28;20072;-70
2022/04/20 06:34:54;;;;;;;66.88;4.78;;;14.60;66.70;;;;;;4994471;28;20110;-70
2022/04/20 06:37:22;;;;;;;38.15;3.83;;;14.60;66.20;;;;;;4994054;28;20046;-69
2022/04/20 06:39:49;;;;;;;76.63;5.15;;;14.60;66.10;;;;;;4977528;28;20117;-72
2022/04/20 06:42:18;;;;;;;35.72;4.32;;;14.60;65.80;;;;;;4978495;28;20489;-73
2022/04/20 06:44:44;;;;;;;56.47;4.40;;;14.60;65.80;;;;;;4996137;28;20141;-73
2022/04/20 06:47:10;;;;;;;46.97;3.35;;;14.60;65.30;;;;;;4978228;28;20092;-74
2022/04/20 06:49:36;;;;;;;55.38;3.97;;;14.60;65.70;;;;;;4977966;28;20022;-73
2022/04/20 07:00:17;;;;;;;35.17;4.00;;;14.80;64.90;;;;;;4995654;28;20036;-71
2022/04/20 07:02:44;;;;;;;26.98;2.85;;;14.70;65.80;;;;;;4995268;28;20085;-71
2022/04/20 07:05:10;;;;;;;53.47;4.13;;;14.80;64.80;;;;;;4995165;28;20069;-71
2022/04/20 07:07:36;;;;;;;39.88;3.08;;;14.80;64.50;;;;;;4995017;28;20030;-71
2022/04/20 07:10:05;;;;;;;82.28;6.30;;;15.00;65.00;;;;;;4995009;28;20049;-71
2022/04/20 07:12:31;;;;;;;41.40;3.63;;;15.10;64.10;;;;;;4994982;28;20027;-71
2022/04/20 07:14:56;;;;;;;35.58;2.72;;;14.90;64.00;;;;;;4977597;28;20425;-71
2022/04/20 07:17:22;;;;;;;44.92;3.65;;;15.00;64.50;;;;;;4977488;28;20034;-71
2022/04/20 07:19:48;;;;;;;47.10;4.88;;;15.10;64.80;;;;;;4995015;28;20046;-71
2022/04/20 07:22:13;;;;;;;22.00;2.38;;;15.30;64.50;;;;;;4994091;28;20076;-71
2022/04/20 07:24:39;;;;;;;28.40;2.88;;;15.20;63.40;;;;;;4994773;28;20042;-71
2022/04/20 07:27:05;;;;;;;44.67;3.25;;;15.30;63.80;;;;;;4995113;28;20437;-71
2022/04/20 07:29:31;;;;;;;21.83;3.28;;;15.40;63.70;;;;;;4995135;28;20026;-71
2022/04/20 07:31:56;;;;;;;24.58;1.85;;;15.50;63.30;;;;;;4995021;28;20022;-71
2022/04/20 07:34:22;;;;;;;102.20;7.63;;;15.40;63.10;;;;;;4994845;28;20031;-71
2022/04/20 07:36:49;;;;;;;15.38;3.10;;;15.40;63.00;;;;;;4977289;28;20496;-71
2022/04/20 07:39:15;;;;;;;45.83;3.88;;;15.40;62.90;;;;;;4995091;28;20055;-71
2022/04/20 07:41:41;;;;;;;315.33;20.50;;;15.40;62.70;;;;;;4994723;28;20094;-71
2022/04/20 07:44:06;;;;;;;32.72;2.20;;;15.30;62.80;;;;;;4994817;28;20027;-71
2022/04/20 07:46:32;;;;;;;48.60;3.75;;;15.30;63.60;;;;;;4994912;28;20358;-71
2022/04/20 07:50:17;;;;;;;41.97;2.67;;;15.40;63.50;;;;;;4994471;28;20043;-68
2022/04/20 07:51:44;;;;;;;19.15;2.08;;;15.40;62.50;;;;;;4994404;28;20062;-71
2022/04/20 07:54:09;;;;;;;37.55;1.98;;;15.30;62.90;;;;;;4994624;28;20057;-75
2022/04/20 07:56:35;;;;;;;32.60;2.90;;;15.20;62.90;;;;;;4994437;28;20026;-75
2022/04/20 07:59:01;;;;;;;34.78;2.40;;;15.20;63.40;;;;;;4994334;28;20022;-75
2022/04/20 08:01:26;;;;;;;24.88;2.78;;;15.10;63.70;;;;;;4994501;28;20030;-75
2022/04/20 08:03:52;;;;;;;39.35;3.38;;;15.10;63.00;;;;;;4994295;28;20045;-77
2022/04/20 08:06:18;;;;;;;22.33;2.03;;;15.10;63.50;;;;;;4994966;28;20018;-73
2022/04/20 08:08:44;;;;;;;26.50;2.72;;;15.10;63.90;;;;;;4994345;28;20541;-73
2022/04/20 08:11:09;;;;;;;7.00;1.20;;;15.20;66.60;;;;;;4994389;28;20023;-73
2022/04/20 08:16:20;;;;;;;61.20;3.60;;;15.30;65.60;;;;;;4994392;28;20033;-73
2022/04/20 08:18:46;;;;;;;22.38;1.65;;;15.30;64.80;;;;;;4994094;28;20073;-71
2022/04/20 08:21:12;;;;;;;20.08;1.92;;;15.30;63.10;;;;;;4994071;28;20022;-72
2022/04/20 08:23:37;;;;;;;15.00;1.52;;;15.20;64.00;;;;;;4993835;28;20049;-72
2022/04/20 08:26:04;;;;;;;9.85;1.30;;;15.30;65.10;;;;;;4994249;28;20108;-72
2022/04/20 08:28:30;;;;;;;14.85;1.88;;;15.40;64.70;;;;;;4993949;28;20038;-72
2022/04/20 08:30:56;;;;;;;14.07;1.77;;;15.50;63.90;;;;;;4993843;28;20029;-70
2022/04/20 08:33:22;;;;;;;19.92;1.90;;;15.50;63.50;;;;;;4993173;28;20034;-71
2022/04/20 08:35:48;;;;;;;13.10;1.25;;;15.50;63.70;;;;;;4993254;28;20452;-71
2022/04/20 08:38:14;;;;;;;23.52;1.70;;;15.50;63.50;;;;;;4993450;28;20039;-72
2022/04/20 08:40:40;;;;;;;25.00;1.80;;;15.60;63.30;;;;;;4993813;28;20321;-71
2022/04/20 08:43:06;;;;;;;18.33;1.80;;;15.60;62.70;;;;;;4993809;28;20066;-72
2022/04/20 08:45:37;;;;;;;14.13;1.20;;;15.70;68.60;;;;;;4993318;28;20058;-73
2022/04/20 08:48:04;;;;;;;16.55;1.25;;;16.00;65.20;;;;;;4993835;28;20030;-72
2022/04/20 08:50:30;;;;;;;16.02;1.52;;;15.90;62.00;;;;;;4993338;28;20026;-72
2022/04/20 08:52:58;;;;;;;19.05;1.48;;;15.80;61.50;;;;;;4975962;28;20029;-72
2022/04/20 08:55:24;;;;;;;16.13;1.48;;;15.80;61.00;;;;;;4993384;28;20401;-72
2022/04/20 08:57:52;;;;;;;32.45;2.55;;;15.80;60.90;;;;;;4993611;28;20088;-74
2022/04/20 09:00:23;;;;;;;260.77;15.00;;;15.70;61.30;;;;;;4993514;28;20034;-72
2022/04/20 09:02:55;;;;;;;52.92;2.47;;;15.80;61.60;;;;;;4993126;28;20109;-77
2022/04/20 09:05:21;;;;;;;11.02;1.05;;;15.90;61.60;;;;;;4993252;28;20034;-78
2022/04/20 09:07:47;;;;;;;23.70;1.38;;;16.00;60.80;;;;;;4993432;28;20034;-77
2022/04/20 09:10:16;;;;;;;9.70;1.48;;;16.00;60.80;;;;;;4993068;28;20025;-77
2022/04/20 09:12:44;;;;;;;19.40;1.55;;;16.00;59.90;;;;;;4993363;28;20089;-78
2022/04/20 09:15:28;;;;;;;22.33;1.85;;;16.00;59.80;;;;;;4992959;28;20525;-81
2022/04/20 09:17:56;;;;;;;25.30;1.92;;;16.00;59.40;;;;;;4993119;28;20061;-80
2022/04/20 09:20:22;;;;;;;61.30;3.05;;;16.00;59.70;;;;;;4992993;28;20022;-81
2022/04/20 09:23:01;;;;;;;16.77;1.67;;;16.10;59.60;;;;;;4993224;28;20034;-80
2022/04/20 09:26:06;;;;;;;14.00;1.03;;;16.10;59.20;;;;;;4992760;28;20023;-80
2022/04/20 09:28:31;;;;;;;41.30;2.78;;;16.10;59.10;;;;;;4990357;28;20340;-80
2022/04/20 09:30:57;;;;;;;30.60;2.20;;;16.00;59.40;;;;;;4975904;28;20026;-80
2022/04/20 09:33:43;;;;;;;2.17;0.82;;;16.10;59.60;;;;;;4992546;28;20038;-80
2022/04/20 09:36:11;;;;;;;90.95;5.22;;;16.10;58.90;;;;;;4992513;28;20517;-79
2022/04/20 09:38:39;;;;;;;18.48;1.45;;;16.00;59.10;;;;;;4992187;28;20145;-79
2022/04/20 09:41:09;;;;;;;30.35;1.48;;;16.00;60.00;;;;;;4992636;28;20030;-79
2022/04/20 09:43:36;;;;;;;21.85;1.60;;;16.20;59.60;;;;;;4994157;28;20048;-80
2022/04/20 09:49:08;;;;;;;68.13;4.68;;;16.20;58.50;;;;;;4992654;28;20033;-81
2022/04/20 09:51:41;;;;;;;8.23;0.82;;;16.30;58.70;;;;;;4992055;28;20032;-80
2022/04/20 09:54:28;;;;;;;20.75;1.60;;;16.40;58.20;;;;;;4992103;28;20548;-80
2022/04/20 09:57:14;;;;;;;59.35;3.80;;;16.30;58.20;;;;;;4992525;28;20093;-80
2022/04/20 09:59:59;;;;;;;8.80;0.98;;;16.40;58.30;;;;;;4989745;28;20031;-82
2022/04/20 10:02:27;;;;;;;26.75;2.17;;;16.50;58.00;;;;;;4968649;28;20038;-81
2022/04/20 10:04:55;;;;;;;51.03;3.63;;;16.50;57.70;;;;;;4990069;28;20113;-81
2022/04/20 10:07:21;;;;;;;14.75;1.60;;;16.60;57.70;;;;;;4992156;28;20034;-78
2022/04/20 10:09:47;;;;;;;21.48;1.52;;;16.60;57.50;;;;;;4992317;28;20029;-78
2022/04/20 10:12:17;;;;;;;25.40;2.22;;;16.60;57.70;;;;;;4992400;28;20018;-77
2022/04/20 10:17:35;;;;;;;44.97;2.67;;;16.60;57.80;;;;;;4992524;28;20401;-78
2022/04/20 10:20:04;;;;;;;15.55;0.82;;;16.70;57.60;;;;;;4992487;28;20056;-78
2022/04/20 10:22:31;;;;;;;1.20;0.50;;;16.70;57.90;;;;;;4992287;28;20031;-78
2022/04/20 10:25:01;;;;;;;51.42;3.00;;;16.80;56.80;;;;;;4992434;28;20027;-78
2022/04/20 10:27:46;;;;;;;59.72;3.58;;;16.70;56.70;;;;;;4992067;28;20474;-78
2022/04/20 10:30:58;;;;;;;42.17;2.72;;;16.70;56.80;;;;;;4992176;28;20609;-77
2022/04/20 10:33:25;;;;;;;39.25;2.03;;;16.70;57.20;;;;;;4992543;28;20035;-77
2022/04/20 10:36:11;;;;;;;41.50;3.15;;;16.70;57.20;;;;;;4991979;28;20118;-78
2022/04/20 10:38:37;;;;;;;9.63;0.73;;;16.80;56.90;;;;;;4991797;28;20121;-77
2022/04/20 10:41:06;;;;;;;6.10;0.73;;;16.80;56.70;;;;;;4992018;28;20039;-78
2022/04/20 10:43:34;;;;;;;26.90;1.80;;;16.70;56.20;;;;;;4991959;28;20512;-77
2022/04/20 10:46:06;;;;;;;33.67;2.30;;;16.70;56.10;;;;;;4992046;28;20624;-77
2022/04/20 10:48:58;;;;;;;3.03;1.00;;;16.70;56.30;;;;;;4992113;28;20018;-78
2022/04/20 10:51:35;;;;;;;17.05;1.50;;;16.70;55.90;;;;;;4992005;28;20081;-75
2022/04/20 10:54:34;;;;;;;25.02;1.38;;;16.70;56.40;;;;;;4991986;28;20482;-78
2022/04/20 10:56:59;;;;;;;14.02;1.17;;;16.70;55.00;;;;;;4991927;28;20023;-74
2022/04/20 10:59:26;;;;;;;33.15;2.65;;;16.70;55.20;;;;;;4995591;28;20077;-75
2022/04/20 11:02:03;;;;;;;4.82;0.45;;;16.80;55.80;;;;;;4995202;28;20023;-74
2022/04/20 11:04:39;;;;;;;24.77;1.50;;;16.80;55.30;;;;;;4995232;28;20033;-75
2022/04/20 11:07:06;;;;;;;52.03;3.15;;;16.70;55.70;;;;;;4977881;28;20030;-74
2022/04/20 11:09:48;;;;;;;17.80;1.20;;;16.70;55.30;;;;;;4995521;28;20030;-75
2022/04/20 11:21:06;;;;;;;12.23;0.98;;;16.70;55.60;;;;;;4995369;28;20034;-75
2022/04/20 11:23:52;;;;;;;7.65;1.60;;;16.70;55.70;;;;;;4994685;28;20034;-78
2022/04/20 11:26:20;;;;;;;17.85;1.30;;;16.80;56.80;;;;;;4995007;28;20018;-74
2022/04/20 11:28:48;;;;;;;101.53;5.03;;;16.80;56.30;;;;;;4994879;28;20359;-74
2022/04/20 11:31:14;;;;;;;21.88;1.67;;;16.80;55.90;;;;;;4994947;28;20023;-75
2022/04/20 11:33:40;;;;;;;19.20;1.27;;;16.70;55.40;;;;;;4994787;28;20657;-78
2022/04/20 11:36:06;;;;;;;33.78;2.83;;;16.70;56.10;;;;;;4994806;28;20031;-73
2022/04/20 11:38:42;;;;;;;46.38;3.15;;;16.70;55.30;;;;;;4994460;28;20046;-71
2022/04/20 11:41:09;;;;;;;9.75;1.42;;;16.70;55.40;;;;;;4994877;28;20470;-73
2022/04/20 11:43:36;;;;;;;32.92;2.53;;;16.70;55.20;;;;;;4994430;28;20034;-71
2022/04/20 11:46:04;;;;;;;18.33;1.25;;;16.70;54.70;;;;;;4994359;28;20494;-73
2022/04/20 11:48:30;;;;;;;11.02;1.25;;;16.80;57.60;;;;;;4994517;28;20532;-72
2022/04/20 11:50:58;;;;;;;16.30;0.95;;;16.80;55.40;;;;;;4994215;28;20377;-72
2022/04/20 11:53:38;;;;;;;18.70;1.45;;;16.80;54.90;;;;;;4976459;28;20030;-72
2022/04/20 11:56:10;;;;;;;7.10;0.50;;;16.80;54.70;;;;;;4993788;28;20092;-72
2022/04/20 11:58:39;;;;;;;6.97;0.60;;;16.80;54.60;;;;;;4993923;28;20085;-72
2022/04/20 12:01:07;;;;;;;5.38;0.57;;;16.80;54.20;;;;;;4993969;28;20041;-72
2022/04/20 12:03:37;;;;;;;35.33;3.15;;;16.80;54.30;;;;;;4976474;28;20038;-72
2022/04/20 12:06:07;;;;;;;14.48;1.02;;;16.70;53.80;;;;;;4993879;28;20057;-72
2022/04/20 12:08:34;;;;;;;10.73;0.70;;;16.70;54.20;;;;;;4993522;28;20117;-72
2022/04/20 12:11:11;;;;;;;5.13;0.98;;;16.80;54.10;;;;;;4993400;28;20030;-72
2022/04/20 12:13:39;;;;;;;4.47;0.60;;;16.80;53.60;;;;;;4993514;28;20022;-72
2022/04/20 12:16:10;;;;;;;21.70;1.50;;;16.80;53.80;;;;;;4993791;28;20038;-72
2022/04/20 12:18:39;;;;;;;9.57;0.73;;;16.80;53.60;;;;;;4976320;28;20045;-72
2022/04/20 12:21:07;;;;;;;16.50;1.00;;;16.80;53.70;;;;;;4993852;28;20478;-72
2022/04/20 12:23:35;;;;;;;62.75;3.80;;;16.80;53.70;;;;;;4993396;28;20079;-72
2022/04/20 12:26:06;;;;;;;14.57;1.17;;;16.80;54.30;;;;;;4993700;28;20023;-72
2022/04/20 12:28:42;;;;;;;16.45;1.27;;;17.00;55.20;;;;;;4993783;28;20031;-71
2022/04/20 12:31:12;;;;;;;26.13;1.63;;;17.00;55.50;;;;;;4993369;28;20028;-71
2022/04/20 12:33:41;;;;;;;19.55;1.52;;;17.00;54.10;;;;;;4995163;28;20034;-70
2022/04/20 12:36:11;;;;;;;34.13;2.10;;;17.00;54.40;;;;;;4993762;28;20084;-70
2022/04/20 12:38:47;;;;;;;17.83;1.70;;;17.00;53.40;;;;;;4995375;28;20061;-70
2022/04/20 12:41:37;;;;;;;10.93;0.88;;;16.90;53.50;;;;;;4993929;28;20050;-70
2022/04/20 12:44:34;;;;;;;16.17;1.25;;;16.90;53.50;;;;;;4993326;28;20038;-70
2022/04/20 12:47:20;;;;;;;15.40;1.00;;;16.90;53.60;;;;;;4992835;28;20026;-70
2022/04/20 12:49:53;;;;;;;54.83;3.42;;;17.00;53.30;;;;;;4992395;28;20023;-71
2022/04/20 12:52:27;;;;;;;5.10;0.75;;;16.90;53.20;;;;;;4993131;28;20048;-71
2022/04/20 12:54:54;;;;;;;18.10;1.10;;;16.90;53.00;;;;;;4992950;28;20031;-71
2022/04/20 13:02:57;;;;;;;15.15;1.42;;;16.90;52.90;;;;;;4992875;28;20586;-71
2022/04/20 13:05:24;;;;;;;9.55;0.70;;;16.90;52.90;;;;;;4993365;28;20030;-71
2022/04/20 13:07:50;;;;;;;18.98;1.33;;;16.90;51.50;;;;;;4993191;28;20030;-71
2022/04/20 13:10:16;;;;;;;14.45;0.90;;;16.90;51.90;;;;;;4993138;28;20023;-71
2022/04/20 13:12:53;;;;;;;15.25;0.80;;;16.90;52.70;;;;;;4993334;28;20066;-71
2022/04/20 13:15:20;;;;;;;24.33;1.80;;;16.90;52.30;;;;;;4993162;28;20421;-72
2022/04/20 13:17:46;;;;;;;17.50;1.35;;;16.90;52.40;;;;;;4992832;28;20066;-71
2022/04/20 13:20:13;;;;;;;22.95;1.58;;;16.90;52.00;;;;;;4992546;28;20478;-71
2022/04/20 13:22:38;;;;;;;10.95;0.77;;;16.90;52.10;;;;;;4993112;28;20496;-71
2022/04/20 13:27:55;;;;;;;46.28;2.45;;;16.90;52.50;;;;;;4993036;28;20104;-71
2022/04/20 13:30:25;;;;;;;33.17;1.83;;;17.00;52.30;;;;;;4993156;28;20034;-72
2022/04/20 13:32:51;;;;;;;;;;;17.00;52.40;;;;;;4975716;28;20026;-71
2022/04/20 13:35:17;;;;;;;12.88;1.00;;;17.00;52.70;;;;;;4974945;28;19972;-72
2022/04/20 13:37:43;;;;;;;22.73;1.45;;;17.00;52.70;;;;;;4992230;28;20493;-72
2022/04/20 13:40:09;;;;;;;85.72;4.25;;;17.00;51.80;;;;;;4992423;28;20027;-71
2022/04/20 13:42:35;;;;;;;42.45;2.58;;;17.00;51.30;;;;;;4989603;28;20033;-85
2022/04/20 13:45:03;;;;;;;28.40;1.40;;;17.00;52.60;;;;;;4992957;28;20039;-79
2022/04/20 13:47:28;;;;;;;14.32;1.25;;;17.10;53.90;;;;;;4992678;28;20034;-79
2022/04/20 13:49:54;;;;;;;25.25;1.80;;;17.20;53.80;;;;;;4992151;28;20116;-80
2022/04/20 13:52:20;;;;;;;17.05;0.90;;;17.30;52.90;;;;;;4989450;28;20034;-78
2022/04/20 13:54:48;;;;;;;5.97;0.85;;;17.30;53.10;;;;;;4991757;28;20077;-76
2022/04/20 13:57:14;;;;;;;10.32;1.25;;;17.30;52.90;;;;;;4973996;28;20085;-73
2022/04/20 14:02:41;;;;;;;14.70;1.42;;;17.30;53.50;;;;;;4980365;28;20041;-74
2022/04/20 14:05:11;;;;;;;27.13;1.38;;;17.30;53.90;;;;;;4989089;28;20026;-75
2022/04/20 14:07:37;;;;;;;31.42;1.90;;;17.40;54.50;;;;;;4989086;28;20018;-74
2022/04/20 14:10:07;;;;;;;16.15;1.30;;;17.40;54.80;;;;;;4986567;28;20019;-74
2022/04/20 14:12:33;;;;;;;;;;;17.40;54.60;;;;;;4989627;28;20034;-75
2022/04/20 14:15:01;;;;;;;14.38;1.13;;;17.30;54.60;;;;;;4980676;28;19910;-74
2022/04/20 14:17:27;;;;;;;34.80;2.78;;;17.30;55.20;;;;;;4959104;28;20035;-74
2022/04/20 14:19:52;;;;;;;24.40;1.83;;;17.30;54.70;;;;;;4990673;28;20085;-75
2022/04/20 14:22:18;;;;;;;4.05;0.60;;;17.30;55.10;;;;;;4991498;28;20132;-74
2022/04/20 14:24:45;;;;;;;30.70;2.25;;;17.30;54.80;;;;;;4982357;28;20050;-74
2022/04/20 14:32:40;;;;;;;44.08;2.13;;;17.20;55.30;;;;;;4984253;28;20030;-73
2022/04/20 14:35:09;;;;;;;23.73;2.17;;;17.20;55.20;;;;;;4985305;28;20030;-72
2022/04/20 14:37:36;;;;;;;15.10;1.20;;;17.20;54.60;;;;;;4992578;28;20467;-72
2022/04/20 14:40:02;;;;;;;10.85;1.23;;;17.10;55.10;;;;;;4989369;28;20030;-72
2022/04/20 14:42:29;;;;;;;22.13;1.95;;;17.10;54.70;;;;;;4988825;28;20060;-72
2022/04/20 14:44:54;;;;;;;17.90;1.08;;;17.10;55.50;;;;;;4987252;28;20042;-72